sensor_id;sensor_type;location;lat;lon;timestamp;temperature;humidity
28823;DHT22;15961;54.678;9.110;2022-12-08T00:00:46;0.20;99.90
28823;DHT22;15961;54.678;9.110;2022-12-08T00:03:12;0.20;99.90
28823;DHT22;15961;54.678;9.110;2022-12-08T00:05:37;0.20;99.90
28823;DHT22;15961;54.678;9.110;2022-12-08T00:08:21;0.30;99.90
28823;DHT22;15961;54.678;9.110;2022-12-08T00:11:11;0.30;99.90
28823;DHT22;15961;54.678;9.110;2022-12-08T00:13:37;0.30;99.90
28823;DHT22;15961;54.678;9.110;2022-12-08T00:16:02;0.30;99.90
28823;DHT22;15961;54.678;9.110;2022-12-08T00:18:28;0.30;99.90
28823;DHT22;15961;54.678;9.110;2022-12-08T00:20:57;0.30;99.90
28823;DHT22;15961;54.678;9.110;2022-12-08T00:23:23;0.30;99.90
28823;DHT22;15961;54.678;9.110;2022-12-08T00:25:49;0.30;99.90
28823;DHT22;15961;54.678;9.110;2022-12-08T00:28:14;0.30;99.90
28823;DHT22;15961;54.678;9.110;2022-12-08T00:30:40;0.30;99.90
28823;DHT22;15961;54.678;9.110;2022-12-08T00:33:06;0.30;99.90
28823;DHT22;15961;54.678;9.110;2022-12-08T00:35:32;0.20;99.90
28823;DHT22;15961;54.678;9.110;2022-12-08T00:37:57;0.20;99.90
28823;DHT22;15961;54.678;9.110;2022-12-08T00:40:23;0.20;99.90
28823;DHT22;15961;54.678;9.110;2022-12-08T00:42:48;0.20;99.90
28823;DHT22;15961;54.678;9.110;2022-12-08T00:45:14;0.20;99.90
28823;DHT22;15961;54.678;9.110;2022-12-08T00:47:39;0.20;99.90
28823;DHT22;15961;54.678;9.110;2022-12-08T00:50:05;0.20;99.90
28823;DHT22;15961;54.678;9.110;2022-12-08T00:52:31;0.20;99.90
28823;DHT22;15961;54.678;9.110;2022-12-08T00:54:56;0.30;99.90
28823;DHT22;15961;54.678;9.110;2022-12-08T00:57:22;0.30;99.90
28823;DHT22;15961;54.678;9.110;2022-12-08T00:59:48;0.30;99.90
28823;DHT22;15961;54.678;9.110;2022-12-08T01:02:13;0.30;99.90
28823;DHT22;15961;54.678;9.110;2022-12-08T01:04:39;0.30;99.90
28823;DHT22;15961;54.678;9.110;2022-12-08T01:07:04;0.30;99.90
28823;DHT22;15961;54.678;9.110;2022-12-08T01:09:30;0.30;99.90
28823;DHT22;15961;54.678;9.110;2022-12-08T01:11:56;0.20;99.90
28823;DHT22;15961;54.678;9.110;2022-12-08T01:14:22;0.30;99.90
28823;DHT22;15961;54.678;9.110;2022-12-08T01:16:47;0.30;99.90
28823;DHT22;15961;54.678;9.110;2022-12-08T01:19:15;0.30;99.90
28823;DHT22;15961;54.678;9.110;2022-12-08T01:21:41;0.30;99.90
28823;DHT22;15961;54.678;9.110;2022-12-08T01:24:17;0.20;99.90
28823;DHT22;15961;54.678;9.110;2022-12-08T01:26:43;0.20;99.90
28823;DHT22;15961;54.678;9.110;2022-12-08T01:29:09;0.20;99.90
28823;DHT22;15961;54.678;9.110;2022-12-08T01:31:35;0.20;99.90
28823;DHT22;15961;54.678;9.110;2022-12-08T01:34:01;0.20;99.90
28823;DHT22;15961;54.678;9.110;2022-12-08T01:36:30;0.20;99.90
28823;DHT22;15961;54.678;9.110;2022-12-08T01:38:57;0.20;99.90
28823;DHT22;15961;54.678;9.110;2022-12-08T01:41:25;0.20;99.90
28823;DHT22;15961;54.678;9.110;2022-12-08T01:46:24;0.20;99.90
28823;DHT22;15961;54.678;9.110;2022-12-08T01:48:57;0.20;99.90
28823;DHT22;15961;54.678;9.110;2022-12-08T01:51:25;0.10;99.90
28823;DHT22;15961;54.678;9.110;2022-12-08T01:53:51;0.10;99.90
28823;DHT22;15961;54.678;9.110;2022-12-08T01:56:29;0.10;99.90
28823;DHT22;15961;54.678;9.110;2022-12-08T01:58:56;0.10;99.90
28823;DHT22;15961;54.678;9.110;2022-12-08T02:01:22;0.10;99.90
28823;DHT22;15961;54.678;9.110;2022-12-08T02:03:57;0.10;99.90
28823;DHT22;15961;54.678;9.110;2022-12-08T02:06:23;0.10;99.90
28823;DHT22;15961;54.678;9.110;2022-12-08T02:08:50;0.10;99.90
28823;DHT22;15961;54.678;9.110;2022-12-08T02:11:16;0.20;99.90
28823;DHT22;15961;54.678;9.110;2022-12-08T02:13:43;0.10;99.90
28823;DHT22;15961;54.678;9.110;2022-12-08T02:22:10;0.20;99.90
28823;DHT22;15961;54.678;9.110;2022-12-08T02:30:41;0.20;99.90
28823;DHT22;15961;54.678;9.110;2022-12-08T02:46:52;0.20;99.90
28823;DHT22;15961;54.678;9.110;2022-12-08T02:49:18;0.20;99.90
28823;DHT22;15961;54.678;9.110;2022-12-08T02:51:44;0.20;99.90
28823;DHT22;15961;54.678;9.110;2022-12-08T02:54:10;0.10;99.90
28823;DHT22;15961;54.678;9.110;2022-12-08T03:00:08;0.10;99.90
28823;DHT22;15961;54.678;9.110;2022-12-08T03:03:07;0.10;99.90
28823;DHT22;15961;54.678;9.110;2022-12-08T03:10:54;0.10;99.90
28823;DHT22;15961;54.678;9.110;2022-12-08T03:13:30;0.10;99.90
28823;DHT22;15961;54.678;9.110;2022-12-08T03:15:57;0.10;99.90
28823;DHT22;15961;54.678;9.110;2022-12-08T03:18:27;0.10;99.90
28823;DHT22;15961;54.678;9.110;2022-12-08T03:20:55;0.10;99.90
28823;DHT22;15961;54.678;9.110;2022-12-08T03:23:23;0.10;99.90
28823;DHT22;15961;54.678;9.110;2022-12-08T03:25:59;0.10;99.90
28823;DHT22;15961;54.678;9.110;2022-12-08T03:28:28;0.00;99.90
28823;DHT22;15961;54.678;9.110;2022-12-08T03:30:56;0.00;99.90
28823;DHT22;15961;54.678;9.110;2022-12-08T03:33:27;0.00;99.90
28823;DHT22;15961;54.678;9.110;2022-12-08T03:35:54;-0.10;99.90
28823;DHT22;15961;54.678;9.110;2022-12-08T03:38:21;-0.10;99.90
28823;DHT22;15961;54.678;9.110;2022-12-08T03:40:47;-0.10;99.90
28823;DHT22;15961;54.678;9.110;2022-12-08T03:43:31;-0.10;99.90
28823;DHT22;15961;54.678;9.110;2022-12-08T03:45:57;-0.10;99.90
28823;DHT22;15961;54.678;9.110;2022-12-08T03:48:22;0.00;99.90
28823;DHT22;15961;54.678;9.110;2022-12-08T03:50:48;0.00;99.90
28823;DHT22;15961;54.678;9.110;2022-12-08T03:53:13;0.00;99.90
28823;DHT22;15961;54.678;9.110;2022-12-08T03:55:39;0.00;99.90
28823;DHT22;15961;54.678;9.110;2022-12-08T03:58:04;0.00;99.90
28823;DHT22;15961;54.678;9.110;2022-12-08T04:00:30;0.00;99.90
28823;DHT22;15961;54.678;9.110;2022-12-08T04:02:55;0.00;99.90
28823;DHT22;15961;54.678;9.110;2022-12-08T04:05:21;0.00;99.90
28823;DHT22;15961;54.678;9.110;2022-12-08T04:07:46;0.00;99.90
28823;DHT22;15961;54.678;9.110;2022-12-08T04:10:12;0.00;99.90
28823;DHT22;15961;54.678;9.110;2022-12-08T04:12:37;0.00;99.90
28823;DHT22;15961;54.678;9.110;2022-12-08T04:15:03;-0.10;99.90
28823;DHT22;15961;54.678;9.110;2022-12-08T04:17:28;-0.10;99.90
28823;DHT22;15961;54.678;9.110;2022-12-08T04:19:54;-0.20;99.90
28823;DHT22;15961;54.678;9.110;2022-12-08T04:22:20;-0.20;99.90
28823;DHT22;15961;54.678;9.110;2022-12-08T04:24:45;-0.20;99.90
28823;DHT22;15961;54.678;9.110;2022-12-08T04:27:10;-0.20;99.90
28823;DHT22;15961;54.678;9.110;2022-12-08T04:29:36;-0.10;99.90
28823;DHT22;15961;54.678;9.110;2022-12-08T04:32:02;-0.20;99.90
28823;DHT22;15961;54.678;9.110;2022-12-08T04:34:27;-0.20;99.90
28823;DHT22;15961;54.678;9.110;2022-12-08T04:36:53;-0.20;99.90
28823;DHT22;15961;54.678;9.110;2022-12-08T04:39:18;-0.30;99.90
28823;DHT22;15961;54.678;9.110;2022-12-08T04:41:44;-0.30;99.90
28823;DHT22;15961;54.678;9.110;2022-12-08T04:44:09;-0.30;99.90
28823;DHT22;15961;54.678;9.110;2022-12-08T04:46:35;-0.30;99.90
28823;DHT22;15961;54.678;9.110;2022-12-08T04:49:00;-0.30;99.90
28823;DHT22;15961;54.678;9.110;2022-12-08T04:51:26;-0.30;99.90
28823;DHT22;15961;54.678;9.110;2022-12-08T04:53:51;-0.30;99.90
28823;DHT22;15961;54.678;9.110;2022-12-08T04:56:18;-0.30;99.90
28823;DHT22;15961;54.678;9.110;2022-12-08T04:58:44;-0.30;99.90
28823;DHT22;15961;54.678;9.110;2022-12-08T05:01:10;-0.30;99.90
28823;DHT22;15961;54.678;9.110;2022-12-08T05:03:35;-0.30;99.90
28823;DHT22;15961;54.678;9.110;2022-12-08T05:06:01;-0.20;99.90
28823;DHT22;15961;54.678;9.110;2022-12-08T05:08:28;-0.20;99.90
28823;DHT22;15961;54.678;9.110;2022-12-08T05:11:01;-0.20;99.90
28823;DHT22;15961;54.678;9.110;2022-12-08T05:13:26;-0.20;99.90
28823;DHT22;15961;54.678;9.110;2022-12-08T05:15:52;-0.20;99.90
28823;DHT22;15961;54.678;9.110;2022-12-08T05:18:17;-0.20;99.90
28823;DHT22;15961;54.678;9.110;2022-12-08T05:20:43;-0.20;99.90
28823;DHT22;15961;54.678;9.110;2022-12-08T05:23:08;-0.20;99.90
28823;DHT22;15961;54.678;9.110;2022-12-08T05:25:34;-0.20;99.90
28823;DHT22;15961;54.678;9.110;2022-12-08T05:27:59;-0.30;99.90
28823;DHT22;15961;54.678;9.110;2022-12-08T05:30:25;-0.30;99.90
28823;DHT22;15961;54.678;9.110;2022-12-08T05:32:50;-0.30;99.90
28823;DHT22;15961;54.678;9.110;2022-12-08T05:35:16;-0.40;99.90
28823;DHT22;15961;54.678;9.110;2022-12-08T05:37:41;-0.40;99.90
28823;DHT22;15961;54.678;9.110;2022-12-08T05:40:07;-0.40;99.90
28823;DHT22;15961;54.678;9.110;2022-12-08T05:42:33;-0.60;99.90
28823;DHT22;15961;54.678;9.110;2022-12-08T05:44:58;-0.70;99.90
28823;DHT22;15961;54.678;9.110;2022-12-08T05:47:24;-1.00;99.90
28823;DHT22;15961;54.678;9.110;2022-12-08T05:49:50;-1.20;99.90
28823;DHT22;15961;54.678;9.110;2022-12-08T05:52:15;-1.40;99.90
28823;DHT22;15961;54.678;9.110;2022-12-08T05:54:42;-1.60;99.90
28823;DHT22;15961;54.678;9.110;2022-12-08T05:57:07;-1.90;99.90
28823;DHT22;15961;54.678;9.110;2022-12-08T05:59:33;-2.10;99.90
28823;DHT22;15961;54.678;9.110;2022-12-08T06:01:59;-2.20;99.90
28823;DHT22;15961;54.678;9.110;2022-12-08T06:04:24;-2.40;99.90
28823;DHT22;15961;54.678;9.110;2022-12-08T06:06:50;-2.50;99.90
28823;DHT22;15961;54.678;9.110;2022-12-08T06:09:15;-2.50;99.90
28823;DHT22;15961;54.678;9.110;2022-12-08T06:11:41;-2.60;99.90
28823;DHT22;15961;54.678;9.110;2022-12-08T06:14:10;-2.50;99.90
28823;DHT22;15961;54.678;9.110;2022-12-08T06:16:36;-2.30;99.90
28823;DHT22;15961;54.678;9.110;2022-12-08T06:19:01;-2.00;99.90
28823;DHT22;15961;54.678;9.110;2022-12-08T06:21:27;-1.80;99.90
28823;DHT22;15961;54.678;9.110;2022-12-08T06:23:53;-1.60;99.90
28823;DHT22;15961;54.678;9.110;2022-12-08T06:26:19;-1.40;99.90
28823;DHT22;15961;54.678;9.110;2022-12-08T06:28:45;-1.30;99.90
28823;DHT22;15961;54.678;9.110;2022-12-08T06:31:17;-1.20;99.90
28823;DHT22;15961;54.678;9.110;2022-12-08T06:33:43;-1.00;99.90
28823;DHT22;15961;54.678;9.110;2022-12-08T06:36:10;-0.90;99.90
28823;DHT22;15961;54.678;9.110;2022-12-08T06:38:36;-0.80;99.90
28823;DHT22;15961;54.678;9.110;2022-12-08T06:41:02;-0.70;99.90
28823;DHT22;15961;54.678;9.110;2022-12-08T06:43:27;-0.70;99.90
28823;DHT22;15961;54.678;9.110;2022-12-08T06:45:53;-0.60;99.90
28823;DHT22;15961;54.678;9.110;2022-12-08T06:48:19;-0.50;99.90
28823;DHT22;15961;54.678;9.110;2022-12-08T06:50:44;-0.50;99.90
28823;DHT22;15961;54.678;9.110;2022-12-08T06:53:11;-0.50;99.90
28823;DHT22;15961;54.678;9.110;2022-12-08T06:55:44;-0.60;99.90
28823;DHT22;15961;54.678;9.110;2022-12-08T06:58:11;-0.70;99.90
28823;DHT22;15961;54.678;9.110;2022-12-08T07:00:38;-0.90;99.90
28823;DHT22;15961;54.678;9.110;2022-12-08T07:03:03;-0.90;99.90
28823;DHT22;15961;54.678;9.110;2022-12-08T07:05:29;-1.00;99.90
28823;DHT22;15961;54.678;9.110;2022-12-08T07:07:54;-1.10;99.90
28823;DHT22;15961;54.678;9.110;2022-12-08T07:10:20;-1.30;99.90
28823;DHT22;15961;54.678;9.110;2022-12-08T07:12:45;-1.40;99.90
28823;DHT22;15961;54.678;9.110;2022-12-08T07:15:11;-1.40;99.90
28823;DHT22;15961;54.678;9.110;2022-12-08T07:17:36;-1.30;99.90
28823;DHT22;15961;54.678;9.110;2022-12-08T07:20:02;-1.20;99.90
28823;DHT22;15961;54.678;9.110;2022-12-08T07:22:27;-1.10;99.90
28823;DHT22;15961;54.678;9.110;2022-12-08T07:24:53;-1.00;99.90
28823;DHT22;15961;54.678;9.110;2022-12-08T07:27:19;-0.90;99.90
28823;DHT22;15961;54.678;9.110;2022-12-08T07:29:44;-0.80;99.90
28823;DHT22;15961;54.678;9.110;2022-12-08T07:32:10;-0.80;99.90
28823;DHT22;15961;54.678;9.110;2022-12-08T07:34:35;-0.70;99.90
28823;DHT22;15961;54.678;9.110;2022-12-08T07:37:01;-0.70;99.90
28823;DHT22;15961;54.678;9.110;2022-12-08T07:39:26;-0.70;99.90
28823;DHT22;15961;54.678;9.110;2022-12-08T07:41:52;-0.70;99.90
28823;DHT22;15961;54.678;9.110;2022-12-08T07:44:17;-0.70;99.90
28823;DHT22;15961;54.678;9.110;2022-12-08T07:46:43;-0.80;99.90
28823;DHT22;15961;54.678;9.110;2022-12-08T07:49:09;-1.00;99.90
28823;DHT22;15961;54.678;9.110;2022-12-08T07:51:34;-1.20;99.90
28823;DHT22;15961;54.678;9.110;2022-12-08T07:54:00;-1.50;99.90
28823;DHT22;15961;54.678;9.110;2022-12-08T07:56:25;-1.70;99.90
28823;DHT22;15961;54.678;9.110;2022-12-08T07:58:51;-1.70;99.90
28823;DHT22;15961;54.678;9.110;2022-12-08T08:01:19;-1.60;99.90
28823;DHT22;15961;54.678;9.110;2022-12-08T08:03:44;-1.50;99.90
28823;DHT22;15961;54.678;9.110;2022-12-08T08:06:10;-1.40;99.90
28823;DHT22;15961;54.678;9.110;2022-12-08T08:08:35;-1.30;99.90
28823;DHT22;15961;54.678;9.110;2022-12-08T08:11:04;-1.20;99.90
28823;DHT22;15961;54.678;9.110;2022-12-08T08:13:30;-1.10;99.90
28823;DHT22;15961;54.678;9.110;2022-12-08T08:16:02;-1.00;99.90
28823;DHT22;15961;54.678;9.110;2022-12-08T08:18:28;-0.90;99.90
28823;DHT22;15961;54.678;9.110;2022-12-08T08:20:53;-0.70;99.90
28823;DHT22;15961;54.678;9.110;2022-12-08T08:23:19;-0.60;99.90
28823;DHT22;15961;54.678;9.110;2022-12-08T08:25:44;-0.60;99.90
28823;DHT22;15961;54.678;9.110;2022-12-08T08:28:10;-0.50;99.90
28823;DHT22;15961;54.678;9.110;2022-12-08T08:30:35;-0.40;99.90
28823;DHT22;15961;54.678;9.110;2022-12-08T08:33:01;-0.30;99.90
28823;DHT22;15961;54.678;9.110;2022-12-08T08:35:26;-0.30;99.90
28823;DHT22;15961;54.678;9.110;2022-12-08T08:37:52;-0.20;99.90
28823;DHT22;15961;54.678;9.110;2022-12-08T08:40:17;-0.10;99.90
28823;DHT22;15961;54.678;9.110;2022-12-08T08:42:43;0.00;99.90
28823;DHT22;15961;54.678;9.110;2022-12-08T08:45:09;0.00;99.90
28823;DHT22;15961;54.678;9.110;2022-12-08T08:47:34;0.10;99.90
28823;DHT22;15961;54.678;9.110;2022-12-08T08:50:00;0.10;99.90
28823;DHT22;15961;54.678;9.110;2022-12-08T08:52:25;0.10;99.90
28823;DHT22;15961;54.678;9.110;2022-12-08T08:54:51;0.00;99.90
28823;DHT22;15961;54.678;9.110;2022-12-08T08:57:16;0.00;99.90
28823;DHT22;15961;54.678;9.110;2022-12-08T08:59:42;-0.10;99.90
28823;DHT22;15961;54.678;9.110;2022-12-08T09:02:15;-0.20;99.90
28823;DHT22;15961;54.678;9.110;2022-12-08T09:04:42;-0.20;99.90
28823;DHT22;15961;54.678;9.110;2022-12-08T09:07:07;-0.30;99.90
28823;DHT22;15961;54.678;9.110;2022-12-08T09:09:33;-0.50;99.90
28823;DHT22;15961;54.678;9.110;2022-12-08T09:11:58;-0.60;99.90
28823;DHT22;15961;54.678;9.110;2022-12-08T09:14:24;-0.50;99.90
28823;DHT22;15961;54.678;9.110;2022-12-08T09:16:49;-0.40;99.90
28823;DHT22;15961;54.678;9.110;2022-12-08T09:19:15;-0.30;99.90
28823;DHT22;15961;54.678;9.110;2022-12-08T09:21:41;-0.30;99.90
28823;DHT22;15961;54.678;9.110;2022-12-08T09:24:06;-0.50;99.90
28823;DHT22;15961;54.678;9.110;2022-12-08T09:26:39;-0.50;99.90
28823;DHT22;15961;54.678;9.110;2022-12-08T09:29:05;-0.50;99.90
28823;DHT22;15961;54.678;9.110;2022-12-08T09:31:30;-0.60;99.90
28823;DHT22;15961;54.678;9.110;2022-12-08T09:33:56;-0.70;99.90
28823;DHT22;15961;54.678;9.110;2022-12-08T09:36:22;-0.80;99.90
28823;DHT22;15961;54.678;9.110;2022-12-08T09:38:47;-0.90;99.90
28823;DHT22;15961;54.678;9.110;2022-12-08T09:41:19;-0.70;99.90
28823;DHT22;15961;54.678;9.110;2022-12-08T09:46:34;-0.70;99.90
28823;DHT22;15961;54.678;9.110;2022-12-08T09:49:01;-0.80;99.90
28823;DHT22;15961;54.678;9.110;2022-12-08T09:51:37;-0.80;99.90
28823;DHT22;15961;54.678;9.110;2022-12-08T09:54:23;-0.80;99.90
28823;DHT22;15961;54.678;9.110;2022-12-08T09:56:52;-0.80;99.90
28823;DHT22;15961;54.678;9.110;2022-12-08T09:59:29;-0.80;99.90
28823;DHT22;15961;54.678;9.110;2022-12-08T10:01:55;-0.90;99.90
28823;DHT22;15961;54.678;9.110;2022-12-08T10:04:40;-0.90;99.90
28823;DHT22;15961;54.678;9.110;2022-12-08T10:18:20;-0.80;99.90
28823;DHT22;15961;54.678;9.110;2022-12-08T10:20:48;-0.70;99.90
28823;DHT22;15961;54.678;9.110;2022-12-08T10:23:26;-0.60;99.90
28823;DHT22;15961;54.678;9.110;2022-12-08T10:26:04;-0.40;99.90
28823;DHT22;15961;54.678;9.110;2022-12-08T10:28:31;-0.30;99.90
28823;DHT22;15961;54.678;9.110;2022-12-08T10:30:57;-0.30;99.90
28823;DHT22;15961;54.678;9.110;2022-12-08T10:33:23;-0.20;99.90
28823;DHT22;15961;54.678;9.110;2022-12-08T10:35:50;-0.10;99.90
28823;DHT22;15961;54.678;9.110;2022-12-08T10:40:45;0.10;99.90
28823;DHT22;15961;54.678;9.110;2022-12-08T10:43:18;0.20;99.90
28823;DHT22;15961;54.678;9.110;2022-12-08T10:45:45;0.30;99.90
28823;DHT22;15961;54.678;9.110;2022-12-08T10:48:23;0.10;99.90
28823;DHT22;15961;54.678;9.110;2022-12-08T10:50:55;0.10;99.90
28823;DHT22;15961;54.678;9.110;2022-12-08T10:56:04;-0.10;99.90
28823;DHT22;15961;54.678;9.110;2022-12-08T10:58:35;-0.20;99.90
28823;DHT22;15961;54.678;9.110;2022-12-08T11:01:05;-0.30;99.90
28823;DHT22;15961;54.678;9.110;2022-12-08T11:03:38;-0.40;99.90
28823;DHT22;15961;54.678;9.110;2022-12-08T11:06:15;-0.30;99.90
28823;DHT22;15961;54.678;9.110;2022-12-08T11:08:53;-0.10;99.90
28823;DHT22;15961;54.678;9.110;2022-12-08T11:11:21;0.10;99.90
28823;DHT22;15961;54.678;9.110;2022-12-08T11:13:49;0.40;99.90
28823;DHT22;15961;54.678;9.110;2022-12-08T11:16:17;0.70;99.90
28823;DHT22;15961;54.678;9.110;2022-12-08T11:18:46;1.10;99.90
28823;DHT22;15961;54.678;9.110;2022-12-08T11:21:18;1.30;99.90
28823;DHT22;15961;54.678;9.110;2022-12-08T11:23:49;1.30;99.90
28823;DHT22;15961;54.678;9.110;2022-12-08T11:26:29;1.40;99.90
28823;DHT22;15961;54.678;9.110;2022-12-08T11:28:56;1.30;99.90
28823;DHT22;15961;54.678;9.110;2022-12-08T11:31:34;1.30;99.90
28823;DHT22;15961;54.678;9.110;2022-12-08T11:34:03;1.00;99.90
28823;DHT22;15961;54.678;9.110;2022-12-08T11:36:30;0.70;99.90
28823;DHT22;15961;54.678;9.110;2022-12-08T11:39:01;0.70;99.90
28823;DHT22;15961;54.678;9.110;2022-12-08T11:41:36;0.70;99.90
28823;DHT22;15961;54.678;9.110;2022-12-08T11:44:33;0.80;99.90
28823;DHT22;15961;54.678;9.110;2022-12-08T11:47:05;0.80;99.90
28823;DHT22;15961;54.678;9.110;2022-12-08T11:49:35;0.70;99.90
28823;DHT22;15961;54.678;9.110;2022-12-08T11:54:47;0.90;99.90
28823;DHT22;15961;54.678;9.110;2022-12-08T11:57:14;1.00;99.90
28823;DHT22;15961;54.678;9.110;2022-12-08T11:59:47;1.00;99.90
28823;DHT22;15961;54.678;9.110;2022-12-08T12:18:38;1.00;99.90
28823;DHT22;15961;54.678;9.110;2022-12-08T12:21:31;0.80;99.90
28823;DHT22;15961;54.678;9.110;2022-12-08T12:24:08;0.80;99.90
28823;DHT22;15961;54.678;9.110;2022-12-08T12:26:36;0.60;99.90
28823;DHT22;15961;54.678;9.110;2022-12-08T12:29:06;0.60;99.90
28823;DHT22;15961;54.678;9.110;2022-12-08T12:31:40;0.40;99.90
28823;DHT22;15961;54.678;9.110;2022-12-08T12:34:17;0.30;99.90
28823;DHT22;15961;54.678;9.110;2022-12-08T12:36:51;0.40;99.90
28823;DHT22;15961;54.678;9.110;2022-12-08T12:39:21;0.30;99.90
28823;DHT22;15961;54.678;9.110;2022-12-08T12:41:54;0.20;99.90
28823;DHT22;15961;54.678;9.110;2022-12-08T12:44:36;0.30;99.90
28823;DHT22;15961;54.678;9.110;2022-12-08T12:47:05;0.30;99.90
28823;DHT22;15961;54.678;9.110;2022-12-08T13:00:08;0.50;99.90
28823;DHT22;15961;54.678;9.110;2022-12-08T13:05:28;0.40;99.90
28823;DHT22;15961;54.678;9.110;2022-12-08T13:08:03;0.40;99.90
28823;DHT22;15961;54.678;9.110;2022-12-08T13:10:38;0.50;99.90
28823;DHT22;15961;54.678;9.110;2022-12-08T13:15:54;0.70;99.90
28823;DHT22;15961;54.678;9.110;2022-12-08T13:18:34;0.70;99.90
28823;DHT22;15961;54.678;9.110;2022-12-08T13:21:11;0.70;99.90
28823;DHT22;15961;54.678;9.110;2022-12-08T13:23:47;0.60;99.90
28823;DHT22;15961;54.678;9.110;2022-12-08T13:26:20;0.40;99.90
28823;DHT22;15961;54.678;9.110;2022-12-08T13:37:14;0.20;99.90
28823;DHT22;15961;54.678;9.110;2022-12-08T13:39:50;0.10;99.90
28823;DHT22;15961;54.678;9.110;2022-12-08T13:44:54;-0.30;99.90
28823;DHT22;15961;54.678;9.110;2022-12-08T13:47:29;-0.40;99.90
28823;DHT22;15961;54.678;9.110;2022-12-08T13:50:12;-0.60;99.90
28823;DHT22;15961;54.678;9.110;2022-12-08T13:55:43;-0.80;99.90
28823;DHT22;15961;54.678;9.110;2022-12-08T13:58:18;-0.80;99.90
28823;DHT22;15961;54.678;9.110;2022-12-08T14:00:57;-0.90;99.90
28823;DHT22;15961;54.678;9.110;2022-12-08T14:03:24;-0.90;99.90
28823;DHT22;15961;54.678;9.110;2022-12-08T14:05:50;-1.00;99.90
28823;DHT22;15961;54.678;9.110;2022-12-08T14:08:36;-1.10;99.90
28823;DHT22;15961;54.678;9.110;2022-12-08T14:11:04;-1.10;99.90
28823;DHT22;15961;54.678;9.110;2022-12-08T14:13:31;-1.10;99.90
28823;DHT22;15961;54.678;9.110;2022-12-08T14:15:57;-1.00;99.90
28823;DHT22;15961;54.678;9.110;2022-12-08T14:18:25;-1.00;99.90
28823;DHT22;15961;54.678;9.110;2022-12-08T14:21:03;-1.00;99.90
28823;DHT22;15961;54.678;9.110;2022-12-08T14:23:30;-1.10;99.90
28823;DHT22;15961;54.678;9.110;2022-12-08T14:25:58;-1.10;99.90
28823;DHT22;15961;54.678;9.110;2022-12-08T14:28:23;-1.10;99.90
28823;DHT22;15961;54.678;9.110;2022-12-08T14:30:49;-1.20;99.90
28823;DHT22;15961;54.678;9.110;2022-12-08T14:33:15;-1.30;99.90
28823;DHT22;15961;54.678;9.110;2022-12-08T14:35:41;-1.30;99.90
28823;DHT22;15961;54.678;9.110;2022-12-08T14:38:18;-1.40;99.90
28823;DHT22;15961;54.678;9.110;2022-12-08T14:41:03;-1.50;99.90
28823;DHT22;15961;54.678;9.110;2022-12-08T14:43:30;-1.60;99.90
28823;DHT22;15961;54.678;9.110;2022-12-08T14:46:11;-1.60;99.90
28823;DHT22;15961;54.678;9.110;2022-12-08T14:48:43;-1.60;99.90
28823;DHT22;15961;54.678;9.110;2022-12-08T14:53:52;-1.70;99.90
28823;DHT22;15961;54.678;9.110;2022-12-08T14:56:59;-1.70;99.90
28823;DHT22;15961;54.678;9.110;2022-12-08T14:59:33;-1.70;99.90
28823;DHT22;15961;54.678;9.110;2022-12-08T15:02:25;-1.80;99.90
28823;DHT22;15961;54.678;9.110;2022-12-08T15:05:16;-1.90;99.90
28823;DHT22;15961;54.678;9.110;2022-12-08T15:07:46;-2.00;99.90
28823;DHT22;15961;54.678;9.110;2022-12-08T15:15:52;-2.40;99.90
28823;DHT22;15961;54.678;9.110;2022-12-08T15:18:37;-2.50;99.90
28823;DHT22;15961;54.678;9.110;2022-12-08T15:21:06;-2.50;99.90
28823;DHT22;15961;54.678;9.110;2022-12-08T15:23:43;-2.50;99.90
28823;DHT22;15961;54.678;9.110;2022-12-08T15:26:23;-2.50;99.90
28823;DHT22;15961;54.678;9.110;2022-12-08T15:28:50;-2.40;99.90
28823;DHT22;15961;54.678;9.110;2022-12-08T15:31:17;-2.40;99.90
28823;DHT22;15961;54.678;9.110;2022-12-08T15:33:42;-2.30;99.90
28823;DHT22;15961;54.678;9.110;2022-12-08T15:36:08;-2.20;99.90
28823;DHT22;15961;54.678;9.110;2022-12-08T15:38:34;-2.10;99.90
28823;DHT22;15961;54.678;9.110;2022-12-08T15:41:00;-2.00;99.90
28823;DHT22;15961;54.678;9.110;2022-12-08T15:43:26;-2.00;99.90
28823;DHT22;15961;54.678;9.110;2022-12-08T15:45:52;-1.90;99.90
28823;DHT22;15961;54.678;9.110;2022-12-08T15:48:21;-1.90;99.90
28823;DHT22;15961;54.678;9.110;2022-12-08T15:50:47;-2.00;99.90
28823;DHT22;15961;54.678;9.110;2022-12-08T15:53:13;-2.00;99.90
28823;DHT22;15961;54.678;9.110;2022-12-08T15:55:40;-2.10;99.90
28823;DHT22;15961;54.678;9.110;2022-12-08T15:58:06;-2.20;99.90
28823;DHT22;15961;54.678;9.110;2022-12-08T16:00:34;-2.30;99.90
28823;DHT22;15961;54.678;9.110;2022-12-08T16:03:01;-2.40;99.90
28823;DHT22;15961;54.678;9.110;2022-12-08T16:05:28;-2.50;99.90
28823;DHT22;15961;54.678;9.110;2022-12-08T16:07:54;-2.50;99.90
28823;DHT22;15961;54.678;9.110;2022-12-08T16:10:22;-2.60;99.90
28823;DHT22;15961;54.678;9.110;2022-12-08T16:12:49;-2.70;99.90
28823;DHT22;15961;54.678;9.110;2022-12-08T16:15:34;-2.70;99.90
28823;DHT22;15961;54.678;9.110;2022-12-08T16:18:01;-2.70;99.90
28823;DHT22;15961;54.678;9.110;2022-12-08T16:20:27;-2.70;99.90
28823;DHT22;15961;54.678;9.110;2022-12-08T16:22:52;-2.70;99.90
28823;DHT22;15961;54.678;9.110;2022-12-08T16:25:19;-2.70;99.90
28823;DHT22;15961;54.678;9.110;2022-12-08T16:27:45;-2.70;99.90
28823;DHT22;15961;54.678;9.110;2022-12-08T16:30:14;-2.70;99.90
28823;DHT22;15961;54.678;9.110;2022-12-08T16:32:39;-2.70;99.90
28823;DHT22;15961;54.678;9.110;2022-12-08T16:35:05;-2.70;99.90
28823;DHT22;15961;54.678;9.110;2022-12-08T16:37:31;-2.60;99.90
28823;DHT22;15961;54.678;9.110;2022-12-08T16:40:00;-2.60;99.90
28823;DHT22;15961;54.678;9.110;2022-12-08T16:42:29;-2.50;99.90
28823;DHT22;15961;54.678;9.110;2022-12-08T16:45:07;-2.50;99.90
28823;DHT22;15961;54.678;9.110;2022-12-08T16:47:33;-2.40;99.90
28823;DHT22;15961;54.678;9.110;2022-12-08T16:49:59;-2.40;99.90
28823;DHT22;15961;54.678;9.110;2022-12-08T16:52:25;-2.40;99.90
28823;DHT22;15961;54.678;9.110;2022-12-08T16:54:50;-2.40;99.90
28823;DHT22;15961;54.678;9.110;2022-12-08T16:57:16;-2.50;99.90
28823;DHT22;15961;54.678;9.110;2022-12-08T16:59:41;-2.60;99.90
28823;DHT22;15961;54.678;9.110;2022-12-08T17:02:08;-2.70;99.90
28823;DHT22;15961;54.678;9.110;2022-12-08T17:04:34;-2.70;99.90
28823;DHT22;15961;54.678;9.110;2022-12-08T17:06:59;-2.70;99.90
28823;DHT22;15961;54.678;9.110;2022-12-08T17:09:26;-2.70;99.90
28823;DHT22;15961;54.678;9.110;2022-12-08T17:11:53;-2.70;99.90
28823;DHT22;15961;54.678;9.110;2022-12-08T17:14:18;-2.70;99.90
28823;DHT22;15961;54.678;9.110;2022-12-08T17:16:44;-2.70;99.90
28823;DHT22;15961;54.678;9.110;2022-12-08T17:19:12;-2.70;99.90
28823;DHT22;15961;54.678;9.110;2022-12-08T17:21:38;-2.60;99.90
28823;DHT22;15961;54.678;9.110;2022-12-08T17:24:04;-2.70;99.90
28823;DHT22;15961;54.678;9.110;2022-12-08T17:26:29;-2.60;99.90
28823;DHT22;15961;54.678;9.110;2022-12-08T17:28:55;-2.60;99.90
28823;DHT22;15961;54.678;9.110;2022-12-08T17:31:20;-2.60;99.90
28823;DHT22;15961;54.678;9.110;2022-12-08T17:33:46;-2.50;99.90
28823;DHT22;15961;54.678;9.110;2022-12-08T17:36:15;-2.50;99.90
28823;DHT22;15961;54.678;9.110;2022-12-08T17:38:41;-2.40;99.90